Lanai Airport Lanai City US
ICAO: PHNY
IATA:
Category: Medium
Scheduled Services:

Elevation: 1308 ft
TransAlt. 0 ft.

Airport Communications:
ASOS:118.375
HONOLULU CNTR:119.3
CTAF:122.9
RDO:117.7

PHNY Zoom In..

Runways:

(A) RW 03 length 5001 ft width 150 ft
ILS 111.10 / hdg 33

(B) RW 21 length 5001 ft width 150 ft
---- / hdg 213

Location; PHNY
Day. 17 / Time. 06.56 Zulu
* Altimeter: 30.08
* Temperature: 23° c. 73.4°f.
* Wind from: 030° Speed 12 kn.
Dewpoint: 20° c.
Visibility: 10 Statute Miles.
Clouds: Broken 3600 ft.

PHNY 170656Z AUTO 03012KT 10SM BKN036 23/20 A3008 RMK AO2 SLP163 T02280200


Wind From 030°
Speed 12 kn.

 
 
jpsmedia.com for Web Design worldairports.se 2018   terms of use